Share

Angola, LA

11:30 PM CDT on April 24, 2014 (GMT -0500)
False River (KHZR) Elev 39 ft | 30.72 °N, 91.48 °W | Change Station
Active Advisory: Flood Warning

Current weather conditions updated 15 minutes ago

Overcast
Overcast
72 °F
Feels Like 72 °F
N
6
Wind Variable Wind from SSW
Sunrise 6:28 AM
Sunset 7:40 PM
Moon Waning Crescent

Tomorrow is forecast to be nearly the same temperature as today.

Pressure 29.93 in
Visibility 10.0 miles
Clouds Overcast 5000 ft
Dew Point 66 °F
Humidity 81%
Rainfall 0.00 in
Snow Depth Not available.
UV 0 out of 16
Pollen 6.60 out of 12
Air Quality Not available.
Flu Activity Local Activity
METAR KHZR 250415Z AUTO 20005KT 10SM OVC050 22/19 A2993 RMK AO2 T02210188

More Conditions Fewer Conditions

Pressure 29.93 in
Visibility 10.0 miles
Clouds Overcast 5000 ft
Dew Point 66 °F
Humidity 81%
Rainfall 0.00 in
Snow Depth Not available.
UV 0 out of 16
Pollen 6.60 out of 12
Air Quality Not available.
Flu Activity Local Activity
METAR KHZR 250415Z AUTO 20005KT 10SM OVC050 22/19 A2993 RMK AO2 T02210188

More Conditions Fewer Conditions

10-Day Weather Forecast

Almanac

Astronomy

Apr. 24, 2014 Rise Set
Actual Time 6:28 AM CDT 7:40 PM CDT
Civil Twilight 6:03 AM CDT 8:05 PM CDT
Nautical Twilight 5:33 AM CDT 8:35 PM CDT
Astronomical Twilight 5:02 AM CDT 9:06 PM CDT
Moon 3:19 AM CDT (4/24) 3:14 PM CDT (4/24)
Length of Visible Light 14h 02m
Length of Day
13h 11m
Tomorrow will be 1m 43s longer.
Waning Crescent, 20% of the Moon is Illuminated
Apr 25
Waning Crescent
Apr 29
New
May 6
First Quarter
May 14
Full
May 21
Last Quarter

Today's Extremes

State Highs State Lows

Community

  • Deer in evening light
    Deer in evening light
  • Critter
    Critter
  • Jone Runs Falls
    Jone Runs Falls
  • Easter in Shenandoah National Park
    Easter in Shenandoah National Park
  • Sunset at Apalachicola Bay, Florida
    Sunset at Apalachicola Bay, Florida

WunderPhotos

Upload Photos

1,704,850 photos uploaded!

WunderBlogs® & News

Nearby

Snow Depth

Station Depth Elevation
No new snow has been reported.

Coastal Water Temperatures

Place Temperature
No Stations Reporting

Earthquake Activity

City Distance Mag. Time & Date
No recent earthquake activity has been reported nearby.
Minimum magnitude displayed is 2.5.

Nearby Weather Stations

There are no personal weather stations in this area.

What do you think?

We're not finished. Please let us know what you like, what you don't like, and what you are still missing.